sensor_id;sensor_type;location;lat;lon;timestamp;temperature;humidity
64817;DHT22;53289;45.602;11.904;2023-03-11T00:02:09;8.60;79.60
64817;DHT22;53289;45.602;11.904;2023-03-11T00:04:35;8.60;80.50
64817;DHT22;53289;45.602;11.904;2023-03-11T00:07:04;8.70;79.40
64817;DHT22;53289;45.602;11.904;2023-03-11T00:09:30;8.70;78.70
64817;DHT22;53289;45.602;11.904;2023-03-11T00:11:56;8.70;78.70
64817;DHT22;53289;45.602;11.904;2023-03-11T00:14:21;8.70;79.20
64817;DHT22;53289;45.602;11.904;2023-03-11T00:16:47;8.70;79.00
64817;DHT22;53289;45.602;11.904;2023-03-11T00:19:13;8.70;79.00
64817;DHT22;53289;45.602;11.904;2023-03-11T00:21:38;8.70;78.90
64817;DHT22;53289;45.602;11.904;2023-03-11T00:24:04;8.60;79.80
64817;DHT22;53289;45.602;11.904;2023-03-11T00:26:30;8.60;79.90
64817;DHT22;53289;45.602;11.904;2023-03-11T00:28:56;8.60;80.00
64817;DHT22;53289;45.602;11.904;2023-03-11T00:31:22;8.60;79.70
64817;DHT22;53289;45.602;11.904;2023-03-11T00:33:53;8.60;79.40
64817;DHT22;53289;45.602;11.904;2023-03-11T00:36:30;8.70;78.80
64817;DHT22;53289;45.602;11.904;2023-03-11T00:38:57;8.70;78.80
64817;DHT22;53289;45.602;11.904;2023-03-11T00:41:23;8.60;79.00
64817;DHT22;53289;45.602;11.904;2023-03-11T00:43:48;8.60;78.90
64817;DHT22;53289;45.602;11.904;2023-03-11T00:46:14;8.60;79.00
64817;DHT22;53289;45.602;11.904;2023-03-11T00:48:40;8.60;78.90
64817;DHT22;53289;45.602;11.904;2023-03-11T00:51:08;8.60;79.10
64817;DHT22;53289;45.602;11.904;2023-03-11T00:53:36;8.60;79.00
64817;DHT22;53289;45.602;11.904;2023-03-11T00:56:09;8.60;78.70
64817;DHT22;53289;45.602;11.904;2023-03-11T00:58:35;8.50;78.70
64817;DHT22;53289;45.602;11.904;2023-03-11T01:01:12;8.50;78.80
64817;DHT22;53289;45.602;11.904;2023-03-11T01:03:39;8.50;78.70
64817;DHT22;53289;45.602;11.904;2023-03-11T01:06:05;8.60;79.10
64817;DHT22;53289;45.602;11.904;2023-03-11T01:08:32;8.50;79.10
64817;DHT22;53289;45.602;11.904;2023-03-11T01:10:58;8.50;79.10
64817;DHT22;53289;45.602;11.904;2023-03-11T01:13:26;8.50;79.20
64817;DHT22;53289;45.602;11.904;2023-03-11T01:15:52;8.50;79.00
64817;DHT22;53289;45.602;11.904;2023-03-11T01:18:18;8.40;79.00
64817;DHT22;53289;45.602;11.904;2023-03-11T01:20:45;8.40;79.20
64817;DHT22;53289;45.602;11.904;2023-03-11T01:23:13;8.40;79.00
64817;DHT22;53289;45.602;11.904;2023-03-11T01:25:39;8.30;78.90
64817;DHT22;53289;45.602;11.904;2023-03-11T01:28:05;8.20;79.00
64817;DHT22;53289;45.602;11.904;2023-03-11T01:30:34;8.10;79.20
64817;DHT22;53289;45.602;11.904;2023-03-11T01:33:01;8.10;79.70
64817;DHT22;53289;45.602;11.904;2023-03-11T01:35:29;8.00;79.50
64817;DHT22;53289;45.602;11.904;2023-03-11T01:37:56;8.00;79.80
64817;DHT22;53289;45.602;11.904;2023-03-11T01:40:34;8.00;79.80
64817;DHT22;53289;45.602;11.904;2023-03-11T01:43:04;8.10;79.80
64817;DHT22;53289;45.602;11.904;2023-03-11T01:48:11;8.10;80.10
64817;DHT22;53289;45.602;11.904;2023-03-11T01:50:42;8.10;80.10
64817;DHT22;53289;45.602;11.904;2023-03-11T01:53:09;8.00;80.10
64817;DHT22;53289;45.602;11.904;2023-03-11T01:55:35;7.90;80.00
64817;DHT22;53289;45.602;11.904;2023-03-11T01:58:05;7.90;79.90
64817;DHT22;53289;45.602;11.904;2023-03-11T02:00:32;7.90;79.80
64817;DHT22;53289;45.602;11.904;2023-03-11T02:03:00;7.80;79.80
64817;DHT22;53289;45.602;11.904;2023-03-11T02:05:27;7.70;79.80
64817;DHT22;53289;45.602;11.904;2023-03-11T02:07:54;7.60;79.80
64817;DHT22;53289;45.602;11.904;2023-03-11T02:10:21;7.60;80.10
64817;DHT22;53289;45.602;11.904;2023-03-11T02:12:48;7.50;80.10
64817;DHT22;53289;45.602;11.904;2023-03-11T02:15:16;7.40;80.00
64817;DHT22;53289;45.602;11.904;2023-03-11T02:17:42;7.30;80.10
64817;DHT22;53289;45.602;11.904;2023-03-11T02:23:01;7.20;80.30
64817;DHT22;53289;45.602;11.904;2023-03-11T02:25:52;7.30;80.60
64817;DHT22;53289;45.602;11.904;2023-03-11T02:28:20;7.20;80.50
64817;DHT22;53289;45.602;11.904;2023-03-11T02:30:47;7.10;80.70
64817;DHT22;53289;45.602;11.904;2023-03-11T02:33:14;7.10;80.60
64817;DHT22;53289;45.602;11.904;2023-03-11T02:35:41;7.10;80.70
64817;DHT22;53289;45.602;11.904;2023-03-11T02:38:07;7.10;80.70
64817;DHT22;53289;45.602;11.904;2023-03-11T02:40:46;7.10;80.60
64817;DHT22;53289;45.602;11.904;2023-03-11T02:43:17;7.10;80.60
64817;DHT22;53289;45.602;11.904;2023-03-11T02:45:44;7.10;80.70
64817;DHT22;53289;45.602;11.904;2023-03-11T02:48:12;7.10;80.80
64817;DHT22;53289;45.602;11.904;2023-03-11T02:50:39;7.00;80.60
64817;DHT22;53289;45.602;11.904;2023-03-11T02:53:06;7.00;80.50
64817;DHT22;53289;45.602;11.904;2023-03-11T02:55:32;6.90;80.60
64817;DHT22;53289;45.602;11.904;2023-03-11T02:57:58;6.90;80.80
64817;DHT22;53289;45.602;11.904;2023-03-11T03:00:24;6.90;80.90
64817;DHT22;53289;45.602;11.904;2023-03-11T03:02:50;6.90;81.10
64817;DHT22;53289;45.602;11.904;2023-03-11T03:05:18;6.90;81.30
64817;DHT22;53289;45.602;11.904;2023-03-11T03:07:47;6.80;80.90
64817;DHT22;53289;45.602;11.904;2023-03-11T03:10:14;6.70;80.80
64817;DHT22;53289;45.602;11.904;2023-03-11T03:12:40;6.70;80.70
64817;DHT22;53289;45.602;11.904;2023-03-11T03:15:07;6.60;80.90
64817;DHT22;53289;45.602;11.904;2023-03-11T03:17:34;6.60;81.00
64817;DHT22;53289;45.602;11.904;2023-03-11T03:20:00;6.60;80.80
64817;DHT22;53289;45.602;11.904;2023-03-11T03:22:25;6.60;80.90
64817;DHT22;53289;45.602;11.904;2023-03-11T03:24:53;6.60;80.90
64817;DHT22;53289;45.602;11.904;2023-03-11T03:27:20;6.60;81.00
64817;DHT22;53289;45.602;11.904;2023-03-11T03:29:46;6.40;81.00
64817;DHT22;53289;45.602;11.904;2023-03-11T03:32:12;6.40;81.00
64817;DHT22;53289;45.602;11.904;2023-03-11T03:34:38;6.40;80.80
64817;DHT22;53289;45.602;11.904;2023-03-11T03:37:03;6.40;80.80
64817;DHT22;53289;45.602;11.904;2023-03-11T03:39:31;6.40;80.90
64817;DHT22;53289;45.602;11.904;2023-03-11T03:41:58;6.30;80.80
64817;DHT22;53289;45.602;11.904;2023-03-11T03:44:24;6.30;80.80
64817;DHT22;53289;45.602;11.904;2023-03-11T03:46:50;6.30;80.90
64817;DHT22;53289;45.602;11.904;2023-03-11T03:49:16;6.30;80.90
64817;DHT22;53289;45.602;11.904;2023-03-11T03:51:42;6.20;80.90
64817;DHT22;53289;45.602;11.904;2023-03-11T03:54:07;6.20;80.90
64817;DHT22;53289;45.602;11.904;2023-03-11T03:56:34;6.20;80.80
64817;DHT22;53289;45.602;11.904;2023-03-11T03:58:59;6.20;81.10
64817;DHT22;53289;45.602;11.904;2023-03-11T04:01:25;6.20;81.00
64817;DHT22;53289;45.602;11.904;2023-03-11T04:03:52;6.20;81.60
64817;DHT22;53289;45.602;11.904;2023-03-11T04:06:21;6.20;80.90
64817;DHT22;53289;45.602;11.904;2023-03-11T04:08:47;6.20;80.70
64817;DHT22;53289;45.602;11.904;2023-03-11T04:11:13;6.20;80.80
64817;DHT22;53289;45.602;11.904;2023-03-11T04:13:39;6.10;80.80
64817;DHT22;53289;45.602;11.904;2023-03-11T04:16:06;6.20;80.70
64817;DHT22;53289;45.602;11.904;2023-03-11T04:18:33;6.10;80.90
64817;DHT22;53289;45.602;11.904;2023-03-11T04:20:59;6.10;81.00
64817;DHT22;53289;45.602;11.904;2023-03-11T04:23:29;6.10;81.00
64817;DHT22;53289;45.602;11.904;2023-03-11T04:25:55;6.00;81.20
64817;DHT22;53289;45.602;11.904;2023-03-11T04:28:20;6.00;81.20
64817;DHT22;53289;45.602;11.904;2023-03-11T04:30:46;6.00;81.20
64817;DHT22;53289;45.602;11.904;2023-03-11T04:33:12;6.00;81.30
64817;DHT22;53289;45.602;11.904;2023-03-11T04:35:38;6.00;81.30
64817;DHT22;53289;45.602;11.904;2023-03-11T04:38:04;6.00;81.20
64817;DHT22;53289;45.602;11.904;2023-03-11T04:40:30;6.00;81.00
64817;DHT22;53289;45.602;11.904;2023-03-11T04:42:56;6.10;81.30
64817;DHT22;53289;45.602;11.904;2023-03-11T04:45:22;6.10;81.40
64817;DHT22;53289;45.602;11.904;2023-03-11T04:47:49;6.10;81.40
64817;DHT22;53289;45.602;11.904;2023-03-11T04:50:16;6.10;81.30
64817;DHT22;53289;45.602;11.904;2023-03-11T04:52:43;6.10;81.20
64817;DHT22;53289;45.602;11.904;2023-03-11T04:55:09;6.10;80.90
64817;DHT22;53289;45.602;11.904;2023-03-11T04:57:36;6.10;81.00
64817;DHT22;53289;45.602;11.904;2023-03-11T05:00:05;6.20;80.80
64817;DHT22;53289;45.602;11.904;2023-03-11T05:02:36;6.20;80.60
64817;DHT22;53289;45.602;11.904;2023-03-11T05:05:02;6.20;80.80
64817;DHT22;53289;45.602;11.904;2023-03-11T05:07:28;6.20;80.80
64817;DHT22;53289;45.602;11.904;2023-03-11T05:09:54;6.20;80.70
64817;DHT22;53289;45.602;11.904;2023-03-11T05:12:20;6.20;80.80
64817;DHT22;53289;45.602;11.904;2023-03-11T05:14:46;6.20;80.90
64817;DHT22;53289;45.602;11.904;2023-03-11T05:17:12;6.20;80.90
64817;DHT22;53289;45.602;11.904;2023-03-11T05:19:39;6.20;80.90
64817;DHT22;53289;45.602;11.904;2023-03-11T05:22:06;6.20;80.90
64817;DHT22;53289;45.602;11.904;2023-03-11T05:24:32;6.20;81.20
64817;DHT22;53289;45.602;11.904;2023-03-11T05:26:58;6.20;81.20
64817;DHT22;53289;45.602;11.904;2023-03-11T05:29:26;6.20;81.40
64817;DHT22;53289;45.602;11.904;2023-03-11T05:31:53;6.30;81.30
64817;DHT22;53289;45.602;11.904;2023-03-11T05:34:19;6.20;81.50
64817;DHT22;53289;45.602;11.904;2023-03-11T05:36:45;6.20;81.30
64817;DHT22;53289;45.602;11.904;2023-03-11T05:39:10;6.20;81.30
64817;DHT22;53289;45.602;11.904;2023-03-11T05:41:36;6.30;81.10
64817;DHT22;53289;45.602;11.904;2023-03-11T05:44:03;6.20;81.20
64817;DHT22;53289;45.602;11.904;2023-03-11T05:46:29;6.20;81.10
64817;DHT22;53289;45.602;11.904;2023-03-11T05:48:55;6.10;81.40
64817;DHT22;53289;45.602;11.904;2023-03-11T05:51:20;6.10;81.80
64817;DHT22;53289;45.602;11.904;2023-03-11T05:53:47;6.10;81.50
64817;DHT22;53289;45.602;11.904;2023-03-11T05:56:18;6.10;81.90
64817;DHT22;53289;45.602;11.904;2023-03-11T05:58:44;6.10;82.20
64817;DHT22;53289;45.602;11.904;2023-03-11T06:01:13;6.10;82.00
64817;DHT22;53289;45.602;11.904;2023-03-11T06:03:40;6.20;82.00
64817;DHT22;53289;45.602;11.904;2023-03-11T06:06:08;6.20;82.30
64817;DHT22;53289;45.602;11.904;2023-03-11T06:08:35;6.30;81.70
64817;DHT22;53289;45.602;11.904;2023-03-11T06:11:03;6.40;81.70
64817;DHT22;53289;45.602;11.904;2023-03-11T06:13:29;6.60;82.00
64817;DHT22;53289;45.602;11.904;2023-03-11T06:15:55;6.70;82.20
64817;DHT22;53289;45.602;11.904;2023-03-11T06:18:22;6.80;82.00
64817;DHT22;53289;45.602;11.904;2023-03-11T06:20:48;6.80;81.40
64817;DHT22;53289;45.602;11.904;2023-03-11T06:23:14;6.90;81.20
64817;DHT22;53289;45.602;11.904;2023-03-11T06:25:40;6.90;81.40
64817;DHT22;53289;45.602;11.904;2023-03-11T06:28:06;6.90;81.30
64817;DHT22;53289;45.602;11.904;2023-03-11T06:30:31;7.00;81.60
64817;DHT22;53289;45.602;11.904;2023-03-11T06:32:57;7.20;81.70
64817;DHT22;53289;45.602;11.904;2023-03-11T06:35:23;7.50;81.70
64817;DHT22;53289;45.602;11.904;2023-03-11T06:37:49;7.80;81.30
64817;DHT22;53289;45.602;11.904;2023-03-11T06:40:15;8.10;81.30
64817;DHT22;53289;45.602;11.904;2023-03-11T06:42:40;8.40;81.30
64817;DHT22;53289;45.602;11.904;2023-03-11T06:45:07;8.60;80.80
64817;DHT22;53289;45.602;11.904;2023-03-11T06:47:33;8.60;80.40
64817;DHT22;53289;45.602;11.904;2023-03-11T06:49:58;8.70;80.10
64817;DHT22;53289;45.602;11.904;2023-03-11T06:52:30;8.70;79.70
64817;DHT22;53289;45.602;11.904;2023-03-11T06:54:56;8.50;79.50
64817;DHT22;53289;45.602;11.904;2023-03-11T06:57:22;8.40;79.50
64817;DHT22;53289;45.602;11.904;2023-03-11T06:59:48;8.30;79.70
64817;DHT22;53289;45.602;11.904;2023-03-11T07:02:14;8.10;79.90
64817;DHT22;53289;45.602;11.904;2023-03-11T07:04:40;8.10;80.20
64817;DHT22;53289;45.602;11.904;2023-03-11T07:07:05;8.20;80.50
64817;DHT22;53289;45.602;11.904;2023-03-11T07:09:31;8.40;80.70
64817;DHT22;53289;45.602;11.904;2023-03-11T07:11:57;8.70;80.70
64817;DHT22;53289;45.602;11.904;2023-03-11T07:14:23;8.90;80.80
64817;DHT22;53289;45.602;11.904;2023-03-11T07:16:48;9.20;80.60
64817;DHT22;53289;45.602;11.904;2023-03-11T07:19:14;9.50;80.60
64817;DHT22;53289;45.602;11.904;2023-03-11T07:21:40;9.70;80.30
64817;DHT22;53289;45.602;11.904;2023-03-11T07:24:07;9.90;80.20
64817;DHT22;53289;45.602;11.904;2023-03-11T07:26:34;10.20;80.00
64817;DHT22;53289;45.602;11.904;2023-03-11T07:29:00;10.60;79.50
64817;DHT22;53289;45.602;11.904;2023-03-11T07:31:32;11.00;79.30
64817;DHT22;53289;45.602;11.904;2023-03-11T07:34:01;11.30;78.40
64817;DHT22;53289;45.602;11.904;2023-03-11T07:36:28;11.60;78.00
64817;DHT22;53289;45.602;11.904;2023-03-11T07:38:59;11.90;77.50
64817;DHT22;53289;45.602;11.904;2023-03-11T07:41:28;12.10;77.00
64817;DHT22;53289;45.602;11.904;2023-03-11T07:43:56;12.40;77.60
64817;DHT22;53289;45.602;11.904;2023-03-11T07:46:23;12.70;76.50
64817;DHT22;53289;45.602;11.904;2023-03-11T07:48:50;12.90;75.50
64817;DHT22;53289;45.602;11.904;2023-03-11T07:51:23;13.10;74.70
64817;DHT22;53289;45.602;11.904;2023-03-11T07:53:51;13.10;74.20
64817;DHT22;53289;45.602;11.904;2023-03-11T07:56:18;13.20;74.10
64817;DHT22;53289;45.602;11.904;2023-03-11T07:58:44;13.30;73.90
64817;DHT22;53289;45.602;11.904;2023-03-11T08:01:13;13.40;73.80
64817;DHT22;53289;45.602;11.904;2023-03-11T08:03:42;13.40;73.00
64817;DHT22;53289;45.602;11.904;2023-03-11T08:06:29;13.40;73.30
64817;DHT22;53289;45.602;11.904;2023-03-11T08:08:57;13.40;73.30
64817;DHT22;53289;45.602;11.904;2023-03-11T08:11:24;13.30;73.40
64817;DHT22;53289;45.602;11.904;2023-03-11T08:13:50;13.30;73.60
64817;DHT22;53289;45.602;11.904;2023-03-11T08:16:19;13.20;73.60
64817;DHT22;53289;45.602;11.904;2023-03-11T08:18:47;13.10;73.60
64817;DHT22;53289;45.602;11.904;2023-03-11T08:21:19;13.10;73.50
64817;DHT22;53289;45.602;11.904;2023-03-11T08:23:47;13.00;73.80
64817;DHT22;53289;45.602;11.904;2023-03-11T08:26:15;13.00;73.70
64817;DHT22;53289;45.602;11.904;2023-03-11T08:28:42;13.10;73.80
64817;DHT22;53289;45.602;11.904;2023-03-11T08:31:20;13.20;73.90
64817;DHT22;53289;45.602;11.904;2023-03-11T08:33:48;13.30;73.60
64817;DHT22;53289;45.602;11.904;2023-03-11T08:36:16;13.40;73.10
64817;DHT22;53289;45.602;11.904;2023-03-11T08:38:41;13.50;73.00
64817;DHT22;53289;45.602;11.904;2023-03-11T08:41:08;13.60;72.50
64817;DHT22;53289;45.602;11.904;2023-03-11T08:43:33;13.60;72.30
64817;DHT22;53289;45.602;11.904;2023-03-11T08:46:01;13.60;72.20
64817;DHT22;53289;45.602;11.904;2023-03-11T08:48:27;13.60;72.20
64817;DHT22;53289;45.602;11.904;2023-03-11T08:50:54;13.70;72.50
64817;DHT22;53289;45.602;11.904;2023-03-11T08:53:21;13.80;72.20
64817;DHT22;53289;45.602;11.904;2023-03-11T08:55:47;13.90;71.90
64817;DHT22;53289;45.602;11.904;2023-03-11T08:58:13;14.00;72.00
64817;DHT22;53289;45.602;11.904;2023-03-11T09:00:39;14.10;71.50
64817;DHT22;53289;45.602;11.904;2023-03-11T09:03:06;14.40;71.60
64817;DHT22;53289;45.602;11.904;2023-03-11T09:05:31;14.60;70.20
64817;DHT22;53289;45.602;11.904;2023-03-11T09:07:57;14.70;70.80
64817;DHT22;53289;45.602;11.904;2023-03-11T09:10:23;14.90;70.70
64817;DHT22;53289;45.602;11.904;2023-03-11T09:12:49;15.20;70.10
64817;DHT22;53289;45.602;11.904;2023-03-11T09:15:15;15.70;70.20
64817;DHT22;53289;45.602;11.904;2023-03-11T09:17:41;15.90;67.70
64817;DHT22;53289;45.602;11.904;2023-03-11T09:20:07;16.20;67.00
64817;DHT22;53289;45.602;11.904;2023-03-11T09:22:33;16.20;65.70
64817;DHT22;53289;45.602;11.904;2023-03-11T09:24:59;16.30;66.40
64817;DHT22;53289;45.602;11.904;2023-03-11T09:27:25;16.40;66.70
64817;DHT22;53289;45.602;11.904;2023-03-11T09:29:51;16.70;66.50
64817;DHT22;53289;45.602;11.904;2023-03-11T09:32:17;16.90;64.70
64817;DHT22;53289;45.602;11.904;2023-03-11T09:34:43;17.10;64.10
64817;DHT22;53289;45.602;11.904;2023-03-11T09:37:08;17.30;64.10
64817;DHT22;53289;45.602;11.904;2023-03-11T09:39:36;17.50;63.50
64817;DHT22;53289;45.602;11.904;2023-03-11T09:42:34;17.60;62.10
64817;DHT22;53289;45.602;11.904;2023-03-11T09:50:45;17.90;61.90
64817;DHT22;53289;45.602;11.904;2023-03-11T09:56:34;17.90;61.70
64817;DHT22;53289;45.602;11.904;2023-03-11T09:59:05;17.80;59.90
64817;DHT22;53289;45.602;11.904;2023-03-11T10:01:33;17.90;61.20
64817;DHT22;53289;45.602;11.904;2023-03-11T10:06:39;18.30;58.50
64817;DHT22;53289;45.602;11.904;2023-03-11T10:17:45;18.60;58.10
64817;DHT22;53289;45.602;11.904;2023-03-11T10:29:01;19.50;55.10
64817;DHT22;53289;45.602;11.904;2023-03-11T10:31:29;19.70;53.70
64817;DHT22;53289;45.602;11.904;2023-03-11T10:34:05;19.70;55.00
64817;DHT22;53289;45.602;11.904;2023-03-11T10:39:26;19.50;55.30
64817;DHT22;53289;45.602;11.904;2023-03-11T10:41:56;19.60;55.80
64817;DHT22;53289;45.602;11.904;2023-03-11T10:44:34;19.70;54.50
64817;DHT22;53289;45.602;11.904;2023-03-11T10:47:01;19.80;53.40
64817;DHT22;53289;45.602;11.904;2023-03-11T10:49:27;19.80;53.20
64817;DHT22;53289;45.602;11.904;2023-03-11T10:51:54;19.70;53.30
64817;DHT22;53289;45.602;11.904;2023-03-11T10:56:59;19.60;53.00
64817;DHT22;53289;45.602;11.904;2023-03-11T10:59:56;19.60;54.00
64817;DHT22;53289;45.602;11.904;2023-03-11T11:02:26;19.60;53.60
64817;DHT22;53289;45.602;11.904;2023-03-11T11:08:18;19.60;51.50
64817;DHT22;53289;45.602;11.904;2023-03-11T11:10:52;20.00;49.80
64817;DHT22;53289;45.602;11.904;2023-03-11T11:13:22;20.00;50.60
64817;DHT22;53289;45.602;11.904;2023-03-11T11:15:58;20.00;51.30
64817;DHT22;53289;45.602;11.904;2023-03-11T11:18:34;19.90;50.70
64817;DHT22;53289;45.602;11.904;2023-03-11T11:21:13;20.00;51.70
64817;DHT22;53289;45.602;11.904;2023-03-11T11:24:02;20.20;50.90
64817;DHT22;53289;45.602;11.904;2023-03-11T11:26:29;20.20;51.10
64817;DHT22;53289;45.602;11.904;2023-03-11T11:31:44;20.10;50.30
64817;DHT22;53289;45.602;11.904;2023-03-11T11:36:52;20.30;50.30
64817;DHT22;53289;45.602;11.904;2023-03-11T11:39:19;20.40;51.00
64817;DHT22;53289;45.602;11.904;2023-03-11T11:41:47;20.40;50.70
64817;DHT22;53289;45.602;11.904;2023-03-11T11:44:18;20.40;51.00
64817;DHT22;53289;45.602;11.904;2023-03-11T11:49:26;20.50;49.40
64817;DHT22;53289;45.602;11.904;2023-03-11T11:52:02;20.40;48.80
64817;DHT22;53289;45.602;11.904;2023-03-11T11:57:14;21.10;48.80
64817;DHT22;53289;45.602;11.904;2023-03-11T11:59:41;21.70;47.50
64817;DHT22;53289;45.602;11.904;2023-03-11T12:18:42;24.20;41.00
64817;DHT22;53289;45.602;11.904;2023-03-11T12:24:23;24.00;40.60
64817;DHT22;53289;45.602;11.904;2023-03-11T12:27:01;24.20;41.20
64817;DHT22;53289;45.602;11.904;2023-03-11T12:29:38;24.30;41.90
64817;DHT22;53289;45.602;11.904;2023-03-11T12:32:05;24.10;42.60
64817;DHT22;53289;45.602;11.904;2023-03-11T12:34:34;24.20;42.70
64817;DHT22;53289;45.602;11.904;2023-03-11T12:37:00;24.30;42.10
64817;DHT22;53289;45.602;11.904;2023-03-11T12:39:32;24.10;41.30
64817;DHT22;53289;45.602;11.904;2023-03-11T12:44:39;23.50;42.10
64817;DHT22;53289;45.602;11.904;2023-03-11T12:54:40;23.50;42.40
64817;DHT22;53289;45.602;11.904;2023-03-11T13:05:31;23.80;43.20
64817;DHT22;53289;45.602;11.904;2023-03-11T13:08:04;23.80;42.90
64817;DHT22;53289;45.602;11.904;2023-03-11T13:13:40;23.50;42.60
64817;DHT22;53289;45.602;11.904;2023-03-11T13:18:42;24.30;41.40
64817;DHT22;53289;45.602;11.904;2023-03-11T13:32:05;24.40;41.90
64817;DHT22;53289;45.602;11.904;2023-03-11T13:37:39;24.40;41.50
64817;DHT22;53289;45.602;11.904;2023-03-11T13:40:51;24.40;41.50
64817;DHT22;53289;45.602;11.904;2023-03-11T13:43:24;24.10;42.50
64817;DHT22;53289;45.602;11.904;2023-03-11T13:46:02;23.60;42.80
64817;DHT22;53289;45.602;11.904;2023-03-11T13:48:45;23.70;43.80
64817;DHT22;53289;45.602;11.904;2023-03-11T13:51:41;23.70;43.30
64817;DHT22;53289;45.602;11.904;2023-03-11T13:56:52;23.70;43.60
64817;DHT22;53289;45.602;11.904;2023-03-11T14:02:00;23.40;43.50
64817;DHT22;53289;45.602;11.904;2023-03-11T14:04:29;23.30;42.90
64817;DHT22;53289;45.602;11.904;2023-03-11T14:06:56;23.20;43.60
64817;DHT22;53289;45.602;11.904;2023-03-11T14:09:24;23.30;43.10
64817;DHT22;53289;45.602;11.904;2023-03-11T14:11:53;23.30;43.50
64817;DHT22;53289;45.602;11.904;2023-03-11T14:17:05;23.10;43.70
64817;DHT22;53289;45.602;11.904;2023-03-11T14:19:35;22.80;43.90
64817;DHT22;53289;45.602;11.904;2023-03-11T14:22:01;22.50;45.30
64817;DHT22;53289;45.602;11.904;2023-03-11T14:24:30;22.40;43.60
64817;DHT22;53289;45.602;11.904;2023-03-11T14:26:59;22.30;44.80
64817;DHT22;53289;45.602;11.904;2023-03-11T14:29:37;22.40;44.50
64817;DHT22;53289;45.602;11.904;2023-03-11T14:32:25;22.20;44.60
64817;DHT22;53289;45.602;11.904;2023-03-11T14:34:53;21.70;44.70
64817;DHT22;53289;45.602;11.904;2023-03-11T14:37:25;21.70;44.40
64817;DHT22;53289;45.602;11.904;2023-03-11T14:39:51;21.60;45.10
64817;DHT22;53289;45.602;11.904;2023-03-11T14:42:33;21.50;45.50
64817;DHT22;53289;45.602;11.904;2023-03-11T14:45:17;21.30;45.30
64817;DHT22;53289;45.602;11.904;2023-03-11T14:47:59;21.10;45.50
64817;DHT22;53289;45.602;11.904;2023-03-11T14:50:30;20.90;45.50
64817;DHT22;53289;45.602;11.904;2023-03-11T14:53:14;20.90;45.90
64817;DHT22;53289;45.602;11.904;2023-03-11T14:55:48;21.00;46.50
64817;DHT22;53289;45.602;11.904;2023-03-11T15:03:33;20.90;46.60
64817;DHT22;53289;45.602;11.904;2023-03-11T15:06:07;20.90;45.70
64817;DHT22;53289;45.602;11.904;2023-03-11T15:08:41;21.10;44.90
64817;DHT22;53289;45.602;11.904;2023-03-11T15:13:40;21.30;44.70
64817;DHT22;53289;45.602;11.904;2023-03-11T15:16:21;21.30;45.20
64817;DHT22;53289;45.602;11.904;2023-03-11T15:18:47;21.30;44.00
64817;DHT22;53289;45.602;11.904;2023-03-11T15:21:15;21.00;45.00
64817;DHT22;53289;45.602;11.904;2023-03-11T15:23:47;20.90;45.60
64817;DHT22;53289;45.602;11.904;2023-03-11T15:28:44;20.80;44.70
64817;DHT22;53289;45.602;11.904;2023-03-11T15:31:34;20.60;46.20
64817;DHT22;53289;45.602;11.904;2023-03-11T15:39:17;20.10;46.40
64817;DHT22;53289;45.602;11.904;2023-03-11T15:41:56;20.10;47.20
64817;DHT22;53289;45.602;11.904;2023-03-11T15:47:02;20.00;48.00
64817;DHT22;53289;45.602;11.904;2023-03-11T15:49:29;19.60;49.20
64817;DHT22;53289;45.602;11.904;2023-03-11T15:51:59;19.40;49.10
64817;DHT22;53289;45.602;11.904;2023-03-11T15:54:26;19.00;49.50
64817;DHT22;53289;45.602;11.904;2023-03-11T15:56:52;18.80;50.30
64817;DHT22;53289;45.602;11.904;2023-03-11T15:59:19;18.40;51.00
64817;DHT22;53289;45.602;11.904;2023-03-11T16:01:46;18.30;51.20
64817;DHT22;53289;45.602;11.904;2023-03-11T16:04:17;18.10;51.50
64817;DHT22;53289;45.602;11.904;2023-03-11T16:06:44;17.90;51.70
64817;DHT22;53289;45.602;11.904;2023-03-11T16:09:11;17.80;52.30
64817;DHT22;53289;45.602;11.904;2023-03-11T16:11:38;17.80;52.20
64817;DHT22;53289;45.602;11.904;2023-03-11T16:14:05;17.70;52.50
64817;DHT22;53289;45.602;11.904;2023-03-11T16:16:34;17.70;52.90
64817;DHT22;53289;45.602;11.904;2023-03-11T16:19:00;17.70;53.50
64817;DHT22;53289;45.602;11.904;2023-03-11T16:21:33;17.60;53.80
64817;DHT22;53289;45.602;11.904;2023-03-11T16:23:59;17.60;53.80
64817;DHT22;53289;45.602;11.904;2023-03-11T16:26:25;17.50;53.60
64817;DHT22;53289;45.602;11.904;2023-03-11T16:28:51;17.50;53.90
64817;DHT22;53289;45.602;11.904;2023-03-11T16:31:17;17.40;54.00
64817;DHT22;53289;45.602;11.904;2023-03-11T16:33:44;17.40;54.40
64817;DHT22;53289;45.602;11.904;2023-03-11T16:36:10;17.30;54.20
64817;DHT22;53289;45.602;11.904;2023-03-11T16:38:43;17.00;54.70
64817;DHT22;53289;45.602;11.904;2023-03-11T16:41:10;17.00;54.70
64817;DHT22;53289;45.602;11.904;2023-03-11T16:43:36;16.90;55.00
64817;DHT22;53289;45.602;11.904;2023-03-11T16:46:02;16.70;55.10
64817;DHT22;53289;45.602;11.904;2023-03-11T16:48:28;16.50;55.40
64817;DHT22;53289;45.602;11.904;2023-03-11T16:50:54;16.40;55.30
64817;DHT22;53289;45.602;11.904;2023-03-11T16:53:20;16.30;55.70
64817;DHT22;53289;45.602;11.904;2023-03-11T16:55:47;16.10;56.40
64817;DHT22;53289;45.602;11.904;2023-03-11T16:58:13;15.90;57.10
64817;DHT22;53289;45.602;11.904;2023-03-11T17:00:40;15.60;57.00
64817;DHT22;53289;45.602;11.904;2023-03-11T17:03:17;15.50;58.10
64817;DHT22;53289;45.602;11.904;2023-03-11T17:05:43;15.30;58.10
64817;DHT22;53289;45.602;11.904;2023-03-11T17:08:09;15.30;57.90
64817;DHT22;53289;45.602;11.904;2023-03-11T17:10:40;15.20;58.00
64817;DHT22;53289;45.602;11.904;2023-03-11T17:15:34;15.20;58.00
64817;DHT22;53289;45.602;11.904;2023-03-11T17:18:01;15.10;58.40
64817;DHT22;53289;45.602;11.904;2023-03-11T17:20:27;15.10;59.80
64817;DHT22;53289;45.602;11.904;2023-03-11T17:22:52;14.90;59.70
64817;DHT22;53289;45.602;11.904;2023-03-11T17:25:18;14.70;60.40
64817;DHT22;53289;45.602;11.904;2023-03-11T17:27:44;14.50;61.00
64817;DHT22;53289;45.602;11.904;2023-03-11T17:30:11;14.40;61.20
64817;DHT22;53289;45.602;11.904;2023-03-11T17:32:37;14.20;62.10
64817;DHT22;53289;45.602;11.904;2023-03-11T17:35:04;14.00;62.30
64817;DHT22;53289;45.602;11.904;2023-03-11T17:37:30;13.90;61.90
64817;DHT22;53289;45.602;11.904;2023-03-11T17:39:56;13.80;62.10
64817;DHT22;53289;45.602;11.904;2023-03-11T17:42:22;13.70;63.30
64817;DHT22;53289;45.602;11.904;2023-03-11T17:44:48;13.60;63.80
64817;DHT22;53289;45.602;11.904;2023-03-11T17:47:14;13.50;64.10
64817;DHT22;53289;45.602;11.904;2023-03-11T17:49:41;13.40;64.90
64817;DHT22;53289;45.602;11.904;2023-03-11T17:52:07;13.20;65.30